Time;durP1;ratioP1;P1;durP2;ratioP2;P2;SDS_P1;SDS_P2;PMS_P1;PMS_P2;Temp;Humidity;BMP_temperature;BMP_pressure;BME280_temperature;BME280_humidity;BME280_pressure;Samples;Min_cycle;Max_cycle;Signal;HPM_P1;HPM_P2
2022/12/18 00:01:05;;;;;;;61.63;26.60;;;;;;;;;;5033562;28;20475;-77
2022/12/18 00:03:31;;;;;;;55.90;26.50;;;;;;;;;;5036530;28;20068;-77
2022/12/18 00:05:57;;;;;;;53.55;25.45;;;;;;;;;;5044961;28;20072;-76
2022/12/18 00:08:23;;;;;;;53.22;25.23;;;;;;;;;;5050530;28;20034;-77
2022/12/18 00:10:49;;;;;;;56.60;24.73;;;;;;;;;;5049167;28;20081;-77
2022/12/18 00:13:15;;;;;;;57.75;25.80;;;;;;;;;;5040199;28;20036;-76
2022/12/18 00:15:41;;;;;;;59.60;24.65;;;;;;;;;;5039666;28;20026;-77
2022/12/18 00:18:07;;;;;;;58.97;26.38;;;;;;;;;;5034447;28;20029;-76
2022/12/18 00:20:40;;;;;;;58.03;26.30;;;;;;;;;;5033965;28;20056;-78
2022/12/18 00:23:06;;;;;;;53.97;24.73;;;;;;;;;;5033409;28;20079;-77
2022/12/18 00:25:34;;;;;;;59.95;23.73;;;;;;;;;;5034264;28;20525;-77
2022/12/18 00:28:00;;;;;;;53.38;24.13;;;;;;;;;;5034807;28;20030;-78
2022/12/18 00:30:26;;;;;;;60.13;25.20;;;;;;;;;;5034614;28;20525;-76
2022/12/18 00:32:52;;;;;;;62.75;25.55;;;;;;;;;;5033742;28;20490;-76
2022/12/18 00:35:18;;;;;;;57.33;25.35;;;;;;;;;;5033521;28;20068;-76
2022/12/18 00:37:44;;;;;;;56.35;25.45;;;;;;;;;;5034925;28;20030;-78
2022/12/18 00:40:10;;;;;;;55.70;24.38;;;;;;;;;;5035848;28;20058;-76
2022/12/18 00:45:21;;;;;;;;;;;;;;;;;;5043497;28;20048;-77
2022/12/18 00:47:47;;;;;;;50.38;23.25;;;;;;;;;;5036986;28;19909;-77
2022/12/18 00:50:13;;;;;;;63.17;24.30;;;;;;;;;;5036376;28;20022;-77
2022/12/18 00:52:42;;;;;;;53.28;23.40;;;;;;;;;;5037730;28;20642;-76
2022/12/18 00:55:08;;;;;;;51.53;23.20;;;;;;;;;;5038796;28;20114;-76
2022/12/18 00:57:34;;;;;;;46.65;22.17;;;;;;;;;;5035993;28;20182;-76
2022/12/18 01:00:00;;;;;;;55.50;23.95;;;;;;;;;;5036940;28;20025;-76
2022/12/18 01:02:26;;;;;;;55.60;23.05;;;;;;;;;;5034867;28;20120;-77
2022/12/18 01:04:52;;;;;;;49.88;22.50;;;;;;;;;;5036306;28;20030;-76
2022/12/18 01:07:18;;;;;;;47.80;22.55;;;;;;;;;;5035240;28;20485;-76
2022/12/18 01:09:44;;;;;;;48.08;22.33;;;;;;;;;;5037991;28;20077;-77
2022/12/18 01:12:10;;;;;;;47.67;22.23;;;;;;;;;;5038011;28;20076;-76
2022/12/18 01:14:37;;;;;;;51.40;22.85;;;;;;;;;;5039360;28;20021;-77
2022/12/18 01:17:03;;;;;;;50.22;21.58;;;;;;;;;;5042492;28;20028;-76
2022/12/18 01:19:29;;;;;;;51.10;21.95;;;;;;;;;;5043528;28;20026;-76
2022/12/18 01:21:55;;;;;;;45.97;21.83;;;;;;;;;;5039874;28;20514;-77
2022/12/18 01:24:21;;;;;;;45.42;21.52;;;;;;;;;;5037880;28;20470;-77
2022/12/18 01:26:47;;;;;;;50.03;20.88;;;;;;;;;;5044738;28;20099;-76
2022/12/18 01:29:13;;;;;;;48.00;20.95;;;;;;;;;;5050034;28;20025;-77
2022/12/18 01:31:39;;;;;;;45.75;22.17;;;;;;;;;;5047973;28;20030;-77
2022/12/18 01:34:05;;;;;;;50.53;21.67;;;;;;;;;;5046821;28;20368;-77
2022/12/18 01:36:35;;;;;;;47.80;21.20;;;;;;;;;;5036954;28;20021;-77
2022/12/18 01:39:03;;;;;;;44.88;20.20;;;;;;;;;;5037657;28;20021;-77
2022/12/18 01:42:01;;;;;;;49.97;21.65;;;;;;;;;;5039242;28;20075;-77
2022/12/18 01:44:34;;;;;;;43.58;20.45;;;;;;;;;;5041754;28;20076;-76
2022/12/18 01:47:00;;;;;;;46.40;21.92;;;;;;;;;;5038907;28;20032;-77
2022/12/18 01:49:26;;;;;;;42.45;20.83;;;;;;;;;;5045276;28;20013;-77
2022/12/18 01:51:52;;;;;;;43.60;20.98;;;;;;;;;;5042905;28;20043;-76
2022/12/18 01:54:18;;;;;;;44.35;20.08;;;;;;;;;;5037676;28;20030;-77
2022/12/18 01:56:44;;;;;;;39.53;19.95;;;;;;;;;;5036959;28;20041;-77
2022/12/18 01:59:11;;;;;;;47.60;21.17;;;;;;;;;;5040734;28;20151;-76
2022/12/18 02:01:38;;;;;;;45.33;21.55;;;;;;;;;;5043627;28;20021;-75
2022/12/18 02:04:20;;;;;;;46.13;20.73;;;;;;;;;;5044475;28;20052;-76
2022/12/18 02:06:49;;;;;;;44.00;19.75;;;;;;;;;;5056035;28;20064;-76
2022/12/18 02:09:21;;;;;;;42.45;18.27;;;;;;;;;;5056715;28;20024;-77
2022/12/18 02:11:53;;;;;;;49.92;20.10;;;;;;;;;;5055452;28;20077;-75
2022/12/18 02:14:33;;;;;;;46.33;19.95;;;;;;;;;;5056998;28;20052;-75
2022/12/18 02:17:28;;;;;;;41.80;19.65;;;;;;;;;;5056826;28;20037;-76
2022/12/18 02:19:54;;;;;;;;;;;;;;;;;;5057487;28;20029;-76
2022/12/18 02:22:20;;;;;;;59.67;22.40;;;;;;;;;;5057165;28;19909;-76
2022/12/18 02:24:54;;;;;;;50.65;20.42;;;;;;;;;;5055637;28;20029;-76
2022/12/18 02:27:20;;;;;;;47.63;21.48;;;;;;;;;;5054547;28;20037;-76
2022/12/18 02:29:54;;;;;;;43.70;20.38;;;;;;;;;;5058257;28;20029;-75
2022/12/18 02:32:22;;;;;;;46.33;20.40;;;;;;;;;;5058334;28;20048;-75
2022/12/18 02:34:49;;;;;;;40.75;19.20;;;;;;;;;;5058198;28;20009;-75
2022/12/18 02:37:17;;;;;;;49.83;21.90;;;;;;;;;;5055047;28;20093;-77
2022/12/18 02:39:45;;;;;;;44.50;19.67;;;;;;;;;;5048836;28;20026;-76
2022/12/18 02:42:11;;;;;;;45.65;20.50;;;;;;;;;;5053911;28;20081;-76
2022/12/18 02:44:50;;;;;;;45.63;19.88;;;;;;;;;;5054572;28;20474;-77
2022/12/18 02:47:21;;;;;;;46.72;20.67;;;;;;;;;;5037667;28;20466;-78
2022/12/18 02:50:05;;;;;;;40.28;19.08;;;;;;;;;;5036086;28;20025;-77
2022/12/18 02:52:31;;;;;;;40.95;19.10;;;;;;;;;;5037752;28;20103;-76
2022/12/18 02:55:23;;;;;;;41.92;18.38;;;;;;;;;;5056780;28;20014;-77
2022/12/18 02:57:53;;;;;;;46.38;19.95;;;;;;;;;;5055583;28;20040;-76
2022/12/18 03:00:22;;;;;;;44.97;19.38;;;;;;;;;;5053820;28;20048;-75
2022/12/18 03:02:51;;;;;;;46.53;19.80;;;;;;;;;;5055253;28;20069;-76
2022/12/18 03:05:19;;;;;;;38.25;18.13;;;;;;;;;;5054458;28;20021;-77
2022/12/18 03:08:00;;;;;;;40.67;18.48;;;;;;;;;;5043261;28;20040;-78
2022/12/18 03:10:31;;;;;;;39.70;17.70;;;;;;;;;;5034628;28;20080;-77
2022/12/18 03:13:04;;;;;;;45.72;20.50;;;;;;;;;;5034451;28;20115;-76
2022/12/18 03:15:32;;;;;;;44.50;19.98;;;;;;;;;;5034165;28;20061;-76
2022/12/18 03:18:02;;;;;;;41.90;18.67;;;;;;;;;;5035925;28;20418;-76
2022/12/18 03:20:30;;;;;;;41.10;18.15;;;;;;;;;;5035025;28;20463;-76
2022/12/18 03:23:00;;;;;;;42.53;18.70;;;;;;;;;;5035897;28;20017;-76
2022/12/18 03:25:26;;;;;;;42.33;18.10;;;;;;;;;;5037648;28;20037;-76
2022/12/18 03:27:54;;;;;;;39.50;19.13;;;;;;;;;;5034004;28;20029;-75
2022/12/18 03:30:20;;;;;;;40.75;19.23;;;;;;;;;;5033585;28;20048;-76
2022/12/18 03:32:53;;;;;;;45.15;18.08;;;;;;;;;;5035079;28;20026;-78
2022/12/18 03:35:22;;;;;;;37.63;17.85;;;;;;;;;;5032770;28;20057;-77
2022/12/18 03:37:48;;;;;;;40.25;17.88;;;;;;;;;;5038043;28;20033;-77
2022/12/18 03:40:14;;;;;;;37.55;17.88;;;;;;;;;;5037403;28;20022;-76
2022/12/18 03:42:49;;;;;;;38.83;18.10;;;;;;;;;;5036067;28;20057;-77
2022/12/18 03:45:27;;;;;;;40.17;18.63;;;;;;;;;;5035761;28;20394;-76
2022/12/18 03:48:06;;;;;;;42.75;18.10;;;;;;;;;;5036662;28;20033;-77
2022/12/18 03:50:32;;;;;;;41.85;17.73;;;;;;;;;;5037719;28;20029;-77
2022/12/18 03:53:18;;;;;;;42.97;18.38;;;;;;;;;;5039086;28;20502;-78
2022/12/18 03:55:44;;;;;;;35.80;17.13;;;;;;;;;;5037995;28;20363;-77
2022/12/18 03:58:11;;;;;;;36.55;16.70;;;;;;;;;;5038505;28;20022;-77
2022/12/18 04:00:38;;;;;;;41.88;17.05;;;;;;;;;;5037581;28;20036;-77
2022/12/18 04:03:05;;;;;;;38.33;16.77;;;;;;;;;;5040339;28;20148;-77
2022/12/18 04:05:33;;;;;;;41.67;17.95;;;;;;;;;;5040515;28;20057;-77
2022/12/18 04:07:59;;;;;;;36.95;16.73;;;;;;;;;;5040744;28;20032;-77
2022/12/18 04:10:25;;;;;;;43.85;17.75;;;;;;;;;;5050269;28;20017;-76
2022/12/18 04:12:51;;;;;;;40.17;17.42;;;;;;;;;;5055249;28;20028;-77
2022/12/18 04:15:17;;;;;;;38.35;16.20;;;;;;;;;;5052226;28;20010;-77
2022/12/18 04:17:47;;;;;;;34.83;16.45;;;;;;;;;;5035762;28;20128;-77
2022/12/18 04:20:13;;;;;;;35.35;16.83;;;;;;;;;;5034792;28;20427;-77
2022/12/18 04:22:39;;;;;;;37.45;17.05;;;;;;;;;;5035666;28;20032;-76
2022/12/18 04:25:05;;;;;;;38.50;17.02;;;;;;;;;;5035169;28;20026;-77
2022/12/18 04:27:31;;;;;;;38.90;16.00;;;;;;;;;;5039274;28;20018;-76
2022/12/18 04:29:57;;;;;;;38.92;16.58;;;;;;;;;;5038099;28;20367;-77
2022/12/18 04:32:23;;;;;;;37.17;16.23;;;;;;;;;;5038455;28;20037;-77
2022/12/18 04:34:49;;;;;;;41.63;17.88;;;;;;;;;;5038429;28;20029;-77
2022/12/18 04:37:15;;;;;;;39.83;16.40;;;;;;;;;;5038052;28;20033;-76
2022/12/18 04:39:41;;;;;;;40.92;17.00;;;;;;;;;;5037683;28;20053;-76
2022/12/18 04:42:07;;;;;;;38.80;16.65;;;;;;;;;;5037566;28;20448;-76
2022/12/18 04:44:33;;;;;;;43.33;16.70;;;;;;;;;;5038043;28;20083;-77
2022/12/18 04:46:58;;;;;;;38.45;15.95;;;;;;;;;;5037163;28;20061;-75
2022/12/18 04:49:25;;;;;;;35.33;16.05;;;;;;;;;;5038018;28;20040;-76
2022/12/18 04:51:51;;;;;;;39.47;17.33;;;;;;;;;;5036828;28;20427;-76
2022/12/18 04:54:17;;;;;;;37.05;16.13;;;;;;;;;;5040366;28;20064;-78
2022/12/18 04:56:43;;;;;;;36.20;16.08;;;;;;;;;;5038891;28;20026;-77
2022/12/18 04:59:09;;;;;;;41.63;15.70;;;;;;;;;;5039180;28;20029;-78
2022/12/18 05:01:35;;;;;;;33.22;15.48;;;;;;;;;;5049014;28;20025;-76
2022/12/18 05:04:01;;;;;;;32.53;15.25;;;;;;;;;;5046841;28;20570;-76
2022/12/18 05:06:27;;;;;;;34.83;15.82;;;;;;;;;;5040244;28;20029;-76
2022/12/18 05:08:53;;;;;;;30.20;14.52;;;;;;;;;;5044204;28;20368;-78
2022/12/18 05:11:19;;;;;;;34.97;16.08;;;;;;;;;;5041131;28;20061;-77
2022/12/18 05:13:45;;;;;;;30.65;14.70;;;;;;;;;;5040618;28;20479;-77
2022/12/18 05:16:12;;;;;;;33.65;15.90;;;;;;;;;;5040303;28;20478;-77
2022/12/18 05:18:38;;;;;;;34.47;14.80;;;;;;;;;;5039657;28;20207;-77
2022/12/18 05:21:04;;;;;;;33.65;14.88;;;;;;;;;;5038968;28;20467;-78
2022/12/18 05:23:30;;;;;;;34.55;15.50;;;;;;;;;;5041910;28;20025;-77
2022/12/18 05:25:58;;;;;;;31.05;14.90;;;;;;;;;;5038091;28;20033;-77
2022/12/18 05:28:24;;;;;;;41.42;16.70;;;;;;;;;;5036650;28;20526;-77
2022/12/18 05:30:51;;;;;;;32.25;13.95;;;;;;;;;;5037741;28;20045;-77
2022/12/18 05:33:17;;;;;;;38.63;15.20;;;;;;;;;;5036553;28;20087;-78
2022/12/18 05:35:44;;;;;;;30.27;15.60;;;;;;;;;;5042588;28;20178;-77
2022/12/18 05:38:10;;;;;;;36.42;14.75;;;;;;;;;;5037243;28;20021;-77
2022/12/18 05:40:36;;;;;;;33.53;14.65;;;;;;;;;;5040477;28;20033;-77
2022/12/18 05:43:02;;;;;;;34.03;15.00;;;;;;;;;;5038573;28;20048;-75
2022/12/18 05:45:28;;;;;;;34.53;15.65;;;;;;;;;;5045097;28;20103;-77
2022/12/18 05:47:54;;;;;;;29.13;14.65;;;;;;;;;;5044513;28;20026;-77
2022/12/18 05:50:20;;;;;;;43.58;16.50;;;;;;;;;;5040208;28;20038;-77
2022/12/18 05:52:46;;;;;;;28.60;13.85;;;;;;;;;;5038010;28;20057;-77
2022/12/18 05:55:12;;;;;;;30.35;15.50;;;;;;;;;;5037535;28;20025;-78
2022/12/18 05:57:38;;;;;;;35.60;15.07;;;;;;;;;;5037393;28;20029;-78
2022/12/18 06:00:04;;;;;;;34.38;14.90;;;;;;;;;;5041858;28;20028;-78
2022/12/18 06:02:30;;;;;;;35.15;15.10;;;;;;;;;;5036190;28;20258;-79
2022/12/18 06:04:56;;;;;;;40.25;15.70;;;;;;;;;;5036417;28;20021;-78
2022/12/18 06:07:22;;;;;;;42.60;15.85;;;;;;;;;;5038571;28;20112;-77
2022/12/18 06:09:48;;;;;;;37.45;15.82;;;;;;;;;;5038894;28;20037;-79
2022/12/18 06:12:14;;;;;;;33.85;15.13;;;;;;;;;;5041529;28;20076;-77
2022/12/18 06:14:40;;;;;;;38.20;16.45;;;;;;;;;;5033626;28;20108;-78
2022/12/18 06:17:06;;;;;;;34.00;15.90;;;;;;;;;;5035989;28;20038;-78
2022/12/18 06:19:32;;;;;;;34.50;16.48;;;;;;;;;;5036931;28;20018;-79
2022/12/18 06:21:58;;;;;;;38.20;16.65;;;;;;;;;;5035779;28;20090;-77
2022/12/18 06:24:24;;;;;;;38.80;18.13;;;;;;;;;;5036148;28;20364;-77
2022/12/18 06:26:50;;;;;;;38.63;15.88;;;;;;;;;;5033774;28;20041;-76
2022/12/18 06:29:18;;;;;;;35.50;16.83;;;;;;;;;;5033405;28;20053;-77
2022/12/18 06:31:44;;;;;;;49.28;19.80;;;;;;;;;;5041752;28;20486;-76
2022/12/18 06:34:09;;;;;;;49.47;18.25;;;;;;;;;;5035774;28;20037;-76
2022/12/18 06:36:35;;;;;;;42.10;18.58;;;;;;;;;;5032672;28;20029;-77
2022/12/18 06:39:01;;;;;;;39.70;18.70;;;;;;;;;;5034954;28;20029;-75
2022/12/18 06:41:27;;;;;;;36.13;18.13;;;;;;;;;;5033462;28;20013;-77
2022/12/18 06:43:53;;;;;;;37.47;17.98;;;;;;;;;;5035682;28;20109;-74
2022/12/18 06:46:19;;;;;;;35.45;16.88;;;;;;;;;;5034783;28;20431;-78
2022/12/18 06:48:49;;;;;;;34.67;17.27;;;;;;;;;;5039374;28;20033;-76
2022/12/18 06:51:22;;;;;;;41.33;16.45;;;;;;;;;;5040335;28;20037;-76
2022/12/18 06:53:48;;;;;;;35.80;16.45;;;;;;;;;;5042282;28;20056;-76
2022/12/18 06:56:14;;;;;;;40.47;17.58;;;;;;;;;;5039254;28;20417;-76
2022/12/18 06:58:40;;;;;;;35.50;15.40;;;;;;;;;;5043115;28;20438;-76
2022/12/18 07:01:08;;;;;;;29.63;15.40;;;;;;;;;;5041954;28;20101;-74
2022/12/18 07:03:34;;;;;;;34.65;16.58;;;;;;;;;;5039551;28;20506;-77
2022/12/18 07:06:00;;;;;;;34.75;16.00;;;;;;;;;;5039937;28;20037;-76
2022/12/18 07:08:26;;;;;;;34.80;15.77;;;;;;;;;;5038328;28;20534;-77
2022/12/18 07:10:53;;;;;;;32.63;15.93;;;;;;;;;;5037770;28;20086;-77
2022/12/18 07:13:19;;;;;;;33.58;15.85;;;;;;;;;;5038942;28;20076;-79
2022/12/18 07:15:45;;;;;;;36.22;16.85;;;;;;;;;;5037879;28;20037;-79
2022/12/18 07:18:11;;;;;;;36.60;16.25;;;;;;;;;;5045490;28;20041;-77
2022/12/18 07:20:37;;;;;;;34.15;16.60;;;;;;;;;;5041844;28;20025;-77
2022/12/18 07:23:05;;;;;;;34.20;15.85;;;;;;;;;;5036212;28;20017;-76
2022/12/18 07:25:30;;;;;;;36.78;16.67;;;;;;;;;;5038813;28;20037;-76
2022/12/18 07:27:56;;;;;;;33.85;15.50;;;;;;;;;;5040517;28;20040;-76
2022/12/18 07:30:22;;;;;;;30.42;14.68;;;;;;;;;;5036696;28;20475;-76
2022/12/18 07:32:48;;;;;;;36.33;15.98;;;;;;;;;;5043573;28;20451;-80
2022/12/18 07:35:14;;;;;;;38.15;15.77;;;;;;;;;;5042418;28;20056;-78
2022/12/18 07:37:40;;;;;;;32.58;15.85;;;;;;;;;;5044389;28;20068;-79
2022/12/18 07:40:07;;;;;;;34.58;14.75;;;;;;;;;;5041280;28;20526;-78
2022/12/18 07:42:33;;;;;;;37.08;15.60;;;;;;;;;;5041685;28;20494;-78
2022/12/18 07:45:00;;;;;;;36.22;14.68;;;;;;;;;;5037540;28;20077;-77
2022/12/18 07:47:26;;;;;;;34.90;15.95;;;;;;;;;;5036745;28;20028;-77
2022/12/18 07:49:52;;;;;;;32.85;15.90;;;;;;;;;;5036034;28;20025;-78
2022/12/18 07:52:18;;;;;;;36.25;15.35;;;;;;;;;;5036390;28;20021;-76
2022/12/18 07:54:44;;;;;;;38.28;16.33;;;;;;;;;;5037103;28;20028;-78
2022/12/18 07:57:11;;;;;;;42.88;16.17;;;;;;;;;;5035935;28;20060;-77
2022/12/18 07:59:37;;;;;;;38.63;15.73;;;;;;;;;;5039398;28;20029;-78
2022/12/18 08:02:03;;;;;;;32.22;16.00;;;;;;;;;;5038687;28;20424;-81
2022/12/18 08:04:29;;;;;;;34.95;15.93;;;;;;;;;;5047542;28;20445;-78
2022/12/18 08:06:55;;;;;;;34.90;15.00;;;;;;;;;;5043328;28;20044;-81
2022/12/18 08:09:21;;;;;;;34.58;15.50;;;;;;;;;;5046418;28;20025;-79
2022/12/18 08:11:47;;;;;;;40.13;16.80;;;;;;;;;;5053916;28;20108;-79
2022/12/18 08:14:14;;;;;;;33.15;15.40;;;;;;;;;;5058430;28;20034;-77
2022/12/18 08:16:40;;;;;;;34.92;15.30;;;;;;;;;;5058366;28;20111;-77
2022/12/18 08:19:06;;;;;;;36.58;15.90;;;;;;;;;;5055971;28;20021;-77
2022/12/18 08:21:32;;;;;;;36.42;15.48;;;;;;;;;;5038703;28;20071;-77
2022/12/18 08:24:00;;;;;;;40.05;15.50;;;;;;;;;;5040148;28;20032;-77
2022/12/18 08:26:27;;;;;;;42.67;16.45;;;;;;;;;;5044568;28;20037;-77
2022/12/18 08:28:54;;;;;;;33.60;15.00;;;;;;;;;;5036864;28;20497;-77
2022/12/18 08:31:21;;;;;;;35.50;16.50;;;;;;;;;;5039660;28;20033;-77
2022/12/18 08:33:49;;;;;;;35.53;16.17;;;;;;;;;;5038559;28;20026;-77
2022/12/18 08:36:15;;;;;;;37.38;17.10;;;;;;;;;;5037025;28;20025;-77
2022/12/18 08:38:41;;;;;;;37.38;16.65;;;;;;;;;;5039255;28;20093;-78
2022/12/18 08:41:07;;;;;;;45.45;17.95;;;;;;;;;;5044519;28;20025;-77
2022/12/18 08:46:19;;;;;;;38.55;16.48;;;;;;;;;;5046887;28;20529;-77
2022/12/18 08:48:45;;;;;;;33.88;17.40;;;;;;;;;;5045456;28;20033;-76
2022/12/18 08:51:11;;;;;;;42.40;18.73;;;;;;;;;;5045607;28;20097;-77
2022/12/18 08:53:37;;;;;;;34.17;16.58;;;;;;;;;;5051925;28;20049;-79
2022/12/18 08:56:04;;;;;;;42.67;17.90;;;;;;;;;;5046836;28;20029;-77
2022/12/18 08:58:31;;;;;;;41.65;17.33;;;;;;;;;;5045787;28;20052;-80
2022/12/18 09:01:09;;;;;;;39.92;17.65;;;;;;;;;;5048851;28;20280;-80
2022/12/18 09:03:35;;;;;;;37.53;18.08;;;;;;;;;;5047306;28;20017;-78
2022/12/18 09:06:01;;;;;;;35.95;17.65;;;;;;;;;;5045843;28;20029;-78
2022/12/18 09:08:27;;;;;;;47.38;17.05;;;;;;;;;;5051377;28;20024;-78
2022/12/18 09:10:54;;;;;;;42.97;17.63;;;;;;;;;;5059389;28;20018;-80
2022/12/18 09:13:21;;;;;;;38.38;16.60;;;;;;;;;;5059260;28;20033;-76
2022/12/18 09:15:48;;;;;;;38.20;16.30;;;;;;;;;;5058155;28;20093;-74
2022/12/18 09:18:15;;;;;;;34.17;15.18;;;;;;;;;;5056725;28;20017;-78
2022/12/18 09:20:41;;;;;;;29.25;14.40;;;;;;;;;;5054352;28;20031;-75
2022/12/18 09:23:08;;;;;;;33.53;15.27;;;;;;;;;;5044541;28;20032;-76
2022/12/18 09:25:35;;;;;;;32.42;13.02;;;;;;;;;;5049889;28;20033;-79
2022/12/18 09:28:02;;;;;;;29.48;13.60;;;;;;;;;;5035599;28;20563;-74
2022/12/18 09:30:28;;;;;;;32.67;14.82;;;;;;;;;;5035205;28;20017;-73
2022/12/18 09:32:54;;;;;;;33.28;14.68;;;;;;;;;;5035990;28;20541;-73
2022/12/18 09:35:20;;;;;;;28.38;12.90;;;;;;;;;;5035644;28;20056;-74
2022/12/18 09:37:46;;;;;;;33.03;13.88;;;;;;;;;;5035536;28;20028;-74
2022/12/18 09:40:16;;;;;;;32.55;14.20;;;;;;;;;;5035160;28;20029;-75
2022/12/18 09:42:45;;;;;;;30.42;14.55;;;;;;;;;;5036453;28;20037;-76
2022/12/18 09:45:14;;;;;;;30.90;15.02;;;;;;;;;;5036302;28;20103;-74
2022/12/18 09:47:41;;;;;;;34.08;13.82;;;;;;;;;;5036640;28;20506;-74
2022/12/18 09:50:26;;;;;;;32.33;14.00;;;;;;;;;;5044006;28;20491;-74
2022/12/18 09:52:54;;;;;;;29.15;13.57;;;;;;;;;;5043425;28;20465;-74
2022/12/18 09:55:26;;;;;;;35.15;15.38;;;;;;;;;;5040083;28;20040;-74
2022/12/18 09:57:54;;;;;;;28.98;14.40;;;;;;;;;;5037073;28;20029;-74
2022/12/18 10:00:24;;;;;;;36.80;15.20;;;;;;;;;;5038789;28;20029;-79
2022/12/18 10:02:56;;;;;;;32.90;14.35;;;;;;;;;;5045329;28;20029;-78
2022/12/18 10:05:31;;;;;;;28.83;13.55;;;;;;;;;;5047770;28;20045;-79
2022/12/18 10:08:05;;;;;;;32.95;13.90;;;;;;;;;;5043921;28;20428;-78
2022/12/18 10:10:34;;;;;;;30.90;14.07;;;;;;;;;;5040695;28;20029;-78
2022/12/18 10:13:19;;;;;;;33.33;15.35;;;;;;;;;;5045785;28;20037;-78
2022/12/18 10:15:52;;;;;;;34.08;14.68;;;;;;;;;;5046423;28;20033;-79
2022/12/18 10:18:38;;;;;;;36.80;15.18;;;;;;;;;;5049791;28;20029;-80
2022/12/18 10:21:30;;;;;;;35.53;15.48;;;;;;;;;;5048588;28;20474;-78
2022/12/18 10:24:03;;;;;;;29.08;14.25;;;;;;;;;;5047044;28;20061;-80
2022/12/18 10:26:32;;;;;;;29.60;12.82;;;;;;;;;;5045885;28;20442;-79
2022/12/18 10:28:59;;;;;;;28.80;13.52;;;;;;;;;;5047972;28;20026;-78
2022/12/18 10:31:25;;;;;;;28.45;14.23;;;;;;;;;;5048314;28;20053;-77
2022/12/18 10:33:51;;;;;;;38.88;14.98;;;;;;;;;;5042474;28;20036;-78
2022/12/18 10:36:17;;;;;;;36.92;14.23;;;;;;;;;;5039202;28;20490;-79
2022/12/18 10:38:43;;;;;;;32.88;14.18;;;;;;;;;;5040453;28;20032;-78
2022/12/18 10:41:11;;;;;;;27.42;13.15;;;;;;;;;;5039747;28;20022;-79
2022/12/18 10:43:40;;;;;;;34.03;14.05;;;;;;;;;;5040851;28;20053;-80
2022/12/18 10:46:09;;;;;;;26.65;13.60;;;;;;;;;;5040439;28;20025;-79
2022/12/18 10:48:48;;;;;;;38.25;14.82;;;;;;;;;;5050128;28;20095;-78
2022/12/18 10:51:22;;;;;;;32.67;15.05;;;;;;;;;;5043577;28;20036;-82
2022/12/18 10:53:52;;;;;;;31.83;14.43;;;;;;;;;;5043878;28;20056;-77
2022/12/18 10:56:20;;;;;;;28.50;14.63;;;;;;;;;;5043540;28;20040;-78
2022/12/18 10:58:55;;;;;;;31.67;14.27;;;;;;;;;;5043847;28;20060;-78
2022/12/18 11:01:21;;;;;;;31.70;14.68;;;;;;;;;;5048720;28;20021;-79
2022/12/18 11:03:50;;;;;;;28.45;13.48;;;;;;;;;;5047671;28;20037;-79
2022/12/18 11:06:22;;;;;;;29.73;14.00;;;;;;;;;;5048599;28;20047;-79
2022/12/18 11:09:02;;;;;;;26.27;13.50;;;;;;;;;;5047912;28;20033;-80
2022/12/18 11:11:28;;;;;;;27.50;13.93;;;;;;;;;;5045060;28;20308;-78
2022/12/18 11:14:13;;;;;;;29.40;13.77;;;;;;;;;;5048949;28;20022;-79
2022/12/18 11:16:47;;;;;;;28.23;13.63;;;;;;;;;;5051774;28;20013;-79
2022/12/18 11:19:32;;;;;;;32.17;14.07;;;;;;;;;;5045180;28;20085;-80
2022/12/18 11:21:58;;;;;;;27.13;13.23;;;;;;;;;;5043715;28;20013;-79
2022/12/18 11:24:31;;;;;;;31.70;12.77;;;;;;;;;;5050312;28;20032;-79
2022/12/18 11:27:01;;;;;;;29.23;12.75;;;;;;;;;;5047048;28;20045;-78
2022/12/18 11:29:30;;;;;;;30.80;14.18;;;;;;;;;;5049892;28;20024;-79
2022/12/18 11:32:15;;;;;;;30.10;13.32;;;;;;;;;;5048824;28;20159;-79
2022/12/18 11:34:49;;;;;;;30.10;14.00;;;;;;;;;;5047675;28;20022;-77
2022/12/18 11:37:18;;;;;;;31.25;13.95;;;;;;;;;;5049461;28;20021;-78
2022/12/18 11:39:55;;;;;;;37.50;14.18;;;;;;;;;;5051836;28;20063;-78
2022/12/18 11:42:24;;;;;;;27.63;13.73;;;;;;;;;;5052510;28;20025;-78
2022/12/18 11:44:52;;;;;;;32.67;13.50;;;;;;;;;;5037424;28;20486;-79
2022/12/18 11:47:20;;;;;;;28.80;13.98;;;;;;;;;;5043350;28;20029;-77
2022/12/18 11:49:48;;;;;;;29.65;13.43;;;;;;;;;;5054887;28;20030;-76
2022/12/18 11:52:23;;;;;;;27.80;13.48;;;;;;;;;;5054145;28;20028;-79
2022/12/18 11:54:48;;;;;;;;;;;;;;;;;;5054925;28;20026;-77
2022/12/18 11:57:30;;;;;;;30.58;12.82;;;;;;;;;;5053037;28;19959;-77
2022/12/18 11:59:59;;;;;;;32.85;13.88;;;;;;;;;;5053833;28;20033;-78
2022/12/18 12:02:28;;;;;;;24.27;12.57;;;;;;;;;;5052856;28;20026;-78
2022/12/18 12:05:06;;;;;;;28.67;13.95;;;;;;;;;;5052614;28;20029;-78
2022/12/18 12:07:51;;;;;;;35.30;14.82;;;;;;;;;;5050978;28;20006;-78
2022/12/18 12:10:37;;;;;;;32.22;13.88;;;;;;;;;;5053305;28;20055;-76
2022/12/18 12:13:23;;;;;;;31.70;14.50;;;;;;;;;;5046302;28;20017;-77
2022/12/18 12:16:08;;;;;;;31.42;14.65;;;;;;;;;;5053042;28;20037;-78
2022/12/18 12:19:00;;;;;;;29.55;15.13;;;;;;;;;;5049654;28;20040;-78
2022/12/18 12:21:37;;;;;;;36.67;16.25;;;;;;;;;;5034374;28;20077;-77
2022/12/18 12:24:12;;;;;;;34.75;17.50;;;;;;;;;;5038427;28;20052;-78
2022/12/18 12:26:44;;;;;;;37.28;17.98;;;;;;;;;;5047141;28;20093;-79
2022/12/18 12:29:10;;;;;;;33.17;17.92;;;;;;;;;;5051920;28;20059;-78
2022/12/18 12:31:46;;;;;;;36.63;17.80;;;;;;;;;;5048950;28;20071;-78
2022/12/18 12:34:13;;;;;;;39.42;17.80;;;;;;;;;;5040502;28;20080;-79
2022/12/18 12:36:48;;;;;;;46.67;20.10;;;;;;;;;;5037107;28;20026;-79
2022/12/18 12:39:18;;;;;;;41.47;19.33;;;;;;;;;;5034644;28;20096;-75
2022/12/18 12:44:34;;;;;;;41.60;18.80;;;;;;;;;;5041652;28;20035;-79
2022/12/18 12:47:03;;;;;;;36.67;17.70;;;;;;;;;;5042056;28;20025;-80
2022/12/18 12:49:32;;;;;;;38.83;17.92;;;;;;;;;;5043419;28;20026;-85
2022/12/18 12:52:19;;;;;;;41.58;17.58;;;;;;;;;;5045119;28;20486;-80
2022/12/18 12:54:45;;;;;;;34.05;17.08;;;;;;;;;;5047567;28;20112;-80
2022/12/18 12:57:11;;;;;;;39.05;18.25;;;;;;;;;;5042183;28;20029;-81
2022/12/18 12:59:42;;;;;;;32.25;16.60;;;;;;;;;;5043784;28;20544;-78
2022/12/18 13:02:11;;;;;;;42.13;17.75;;;;;;;;;;5040820;28;20475;-78
2022/12/18 13:04:42;;;;;;;37.17;16.95;;;;;;;;;;5041154;28;20018;-78
2022/12/18 13:07:27;;;;;;;37.67;18.20;;;;;;;;;;5040975;28;20045;-78
2022/12/18 13:10:12;;;;;;;36.03;16.90;;;;;;;;;;5041124;28;20036;-80
2022/12/18 13:12:57;;;;;;;39.13;18.05;;;;;;;;;;5044719;28;20033;-78
2022/12/18 13:15:25;;;;;;;35.15;17.27;;;;;;;;;;5043906;28;20029;-78
2022/12/18 13:18:24;;;;;;;37.70;17.45;;;;;;;;;;5043613;28;20032;-79
2022/12/18 13:20:50;;;;;;;39.55;18.00;;;;;;;;;;5035511;28;20041;-80
2022/12/18 13:23:22;;;;;;;44.50;19.67;;;;;;;;;;5042678;28;20068;-75
2022/12/18 13:25:48;;;;;;;38.35;17.73;;;;;;;;;;5039320;28;20034;-75
2022/12/18 13:28:15;;;;;;;38.00;18.60;;;;;;;;;;5036790;28;20030;-74
2022/12/18 13:30:41;;;;;;;43.35;19.48;;;;;;;;;;5036097;28;20026;-79
2022/12/18 13:33:17;;;;;;;36.33;17.52;;;;;;;;;;5043210;28;20040;-76
2022/12/18 13:35:46;;;;;;;37.53;18.45;;;;;;;;;;5036291;28;20037;-77
2022/12/18 13:38:30;;;;;;;40.80;18.23;;;;;;;;;;5047305;28;20081;-80
2022/12/18 13:40:56;;;;;;;;;;;;;;;;;;5042422;28;20130;-78
2022/12/18 13:43:22;;;;;;;45.90;20.50;;;;;;;;;;5045186;28;20254;-80
2022/12/18 13:45:54;;;;;;;38.50;18.15;;;;;;;;;;5049529;28;20036;-80
2022/12/18 13:48:22;;;;;;;46.90;20.27;;;;;;;;;;5045697;28;20037;-80
2022/12/18 13:50:50;;;;;;;45.60;20.63;;;;;;;;;;5042814;28;20410;-79
2022/12/18 13:53:20;;;;;;;47.42;21.20;;;;;;;;;;5043318;28;20025;-80
2022/12/18 13:55:46;;;;;;;51.75;21.80;;;;;;;;;;5041886;28;20037;-80
2022/12/18 13:58:13;;;;;;;61.70;22.08;;;;;;;;;;5041682;28;20026;-79
2022/12/18 14:00:42;;;;;;;47.10;20.80;;;;;;;;;;5041103;28;20060;-79
2022/12/18 14:03:19;;;;;;;55.33;22.02;;;;;;;;;;5042838;28;20497;-79
2022/12/18 14:05:46;;;;;;;51.15;20.58;;;;;;;;;;5045760;28;20033;-78
2022/12/18 14:08:14;;;;;;;54.72;23.88;;;;;;;;;;5046099;28;20017;-80
2022/12/18 14:10:47;;;;;;;52.05;21.98;;;;;;;;;;5047144;28;20045;-79
2022/12/18 14:13:31;;;;;;;42.17;17.20;;;;;;;;;;5052511;28;20457;-79
2022/12/18 14:15:59;;;;;;;55.45;24.02;;;;;;;;;;5040781;28;20026;-78
2022/12/18 14:18:38;;;;;;;67.45;24.85;;;;;;;;;;5042435;28;20018;-78
2022/12/18 14:21:05;;;;;;;57.03;24.98;;;;;;;;;;5041935;28;20441;-79
2022/12/18 14:23:33;;;;;;;66.25;25.90;;;;;;;;;;5040333;28;20029;-78
2022/12/18 14:26:00;;;;;;;65.13;26.25;;;;;;;;;;5040979;28;20044;-82
2022/12/18 14:28:26;;;;;;;55.80;23.95;;;;;;;;;;5044423;28;20041;-79
2022/12/18 14:30:54;;;;;;;66.05;26.15;;;;;;;;;;5044998;28;20029;-79
2022/12/18 14:33:22;;;;;;;58.72;25.45;;;;;;;;;;5050453;28;20026;-77
2022/12/18 14:35:53;;;;;;;64.43;26.10;;;;;;;;;;5054401;28;20021;-78
2022/12/18 14:38:22;;;;;;;70.45;26.42;;;;;;;;;;5055563;28;20111;-79